Time;durP1;ratioP1;P1;durP2;ratioP2;P2;SDS_P1;SDS_P2;PMS_P1;PMS_P2;Temp;Humidity;BMP_temperature;BMP_pressure;BME280_temperature;BME280_humidity;BME280_pressure;Samples;Min_cycle;Max_cycle;Signal;HPM_P1;HPM_P2
2020/12/17 00:00:52;;;;;;;9.03;7.30;;;;;;;;;;4970384;28;20198;-75
2020/12/17 00:03:18;;;;;;;8.73;6.50;;;;;;;;;;4967615;28;20930;-75
2020/12/17 00:05:44;;;;;;;8.40;7.37;;;;;;;;;;4971626;28;20424;-75
2020/12/17 00:08:10;;;;;;;6.77;6.17;;;;;;;;;;4970570;28;20454;-74
2020/12/17 00:10:36;;;;;;;7.30;6.60;;;;;;;;;;4968769;28;20525;-77
2020/12/17 00:13:02;;;;;;;7.70;6.93;;;;;;;;;;4967910;28;20841;-74
2020/12/17 00:15:28;;;;;;;9.80;6.18;;;;;;;;;;4970945;28;20189;-73
2020/12/17 00:17:55;;;;;;;8.57;6.73;;;;;;;;;;4969271;28;20235;-73
2020/12/17 00:20:22;;;;;;;8.07;6.35;;;;;;;;;;4970489;28;20424;-75
2020/12/17 00:22:48;;;;;;;6.10;5.50;;;;;;;;;;4970148;28;20267;-76
2020/12/17 00:25:18;;;;;;;12.15;8.02;;;;;;;;;;4970797;28;20214;-74
2020/12/17 00:27:44;;;;;;;10.40;7.40;;;;;;;;;;4965882;28;20181;-76
2020/12/17 00:30:11;;;;;;;6.97;6.28;;;;;;;;;;4964413;28;20247;-75
2020/12/17 00:32:37;;;;;;;7.60;6.90;;;;;;;;;;4970347;28;20551;-74
2020/12/17 00:35:04;;;;;;;7.20;6.20;;;;;;;;;;4967481;28;20671;-73
2020/12/17 00:37:30;;;;;;;10.27;6.45;;;;;;;;;;4961664;28;20753;-76
2020/12/17 00:39:57;;;;;;;8.00;6.53;;;;;;;;;;4970855;28;20211;-75
2020/12/17 00:42:23;;;;;;;8.23;6.20;;;;;;;;;;4970101;28;20300;-73
2020/12/17 00:44:49;;;;;;;8.13;6.50;;;;;;;;;;4971173;28;20180;-75
2020/12/17 00:47:15;;;;;;;8.50;7.03;;;;;;;;;;4961917;28;20188;-75
2020/12/17 00:49:41;;;;;;;8.23;7.43;;;;;;;;;;4971346;28;20223;-74
2020/12/17 00:52:07;;;;;;;8.97;7.07;;;;;;;;;;4973077;28;20180;-74
2020/12/17 00:54:33;;;;;;;11.35;6.78;;;;;;;;;;4973433;28;20442;-72
2020/12/17 00:56:59;;;;;;;7.90;7.10;;;;;;;;;;4973249;28;20180;-74
2020/12/17 00:59:25;;;;;;;8.13;6.40;;;;;;;;;;4973539;28;20463;-74
2020/12/17 01:01:51;;;;;;;11.90;7.20;;;;;;;;;;4973547;28;20485;-73
2020/12/17 01:04:17;;;;;;;9.80;6.90;;;;;;;;;;4973492;28;20454;-73
2020/12/17 01:06:43;;;;;;;8.57;6.40;;;;;;;;;;4971371;28;20439;-73
2020/12/17 01:09:10;;;;;;;9.25;7.05;;;;;;;;;;4971151;28;20820;-73
2020/12/17 01:11:36;;;;;;;7.40;6.70;;;;;;;;;;4973479;28;20215;-74
2020/12/17 01:14:02;;;;;;;8.93;6.93;;;;;;;;;;4972574;28;20188;-74
2020/12/17 01:16:28;;;;;;;11.83;8.30;;;;;;;;;;4974095;28;20582;-73
2020/12/17 01:18:54;;;;;;;9.05;7.50;;;;;;;;;;4973132;28;20463;-73
2020/12/17 01:21:20;;;;;;;10.18;7.53;;;;;;;;;;4973325;28;20200;-73
2020/12/17 01:23:47;;;;;;;7.20;6.05;;;;;;;;;;4972281;28;20196;-73
2020/12/17 01:26:13;;;;;;;7.35;6.65;;;;;;;;;;4973396;28;20203;-74
2020/12/17 01:28:39;;;;;;;8.27;6.47;;;;;;;;;;4971821;28;20204;-75
2020/12/17 01:31:15;;;;;;;6.90;6.20;;;;;;;;;;4973437;28;20338;-73
2020/12/17 01:33:42;;;;;;;9.65;6.97;;;;;;;;;;4972784;28;20180;-74
2020/12/17 01:36:08;;;;;;;8.77;6.45;;;;;;;;;;4973504;28;20206;-73
2020/12/17 01:38:34;;;;;;;8.48;7.22;;;;;;;;;;4971530;28;20208;-74
2020/12/17 01:41:00;;;;;;;9.30;6.85;;;;;;;;;;4973418;28;20216;-74
2020/12/17 01:43:26;;;;;;;8.17;6.80;;;;;;;;;;4972072;28;20266;-74
2020/12/17 01:45:53;;;;;;;7.75;6.05;;;;;;;;;;4972651;28;20439;-74
2020/12/17 01:48:20;;;;;;;7.90;7.15;;;;;;;;;;4973457;28;20212;-74
2020/12/17 01:50:46;;;;;;;7.00;6.32;;;;;;;;;;4972323;28;20223;-73
2020/12/17 01:53:13;;;;;;;8.10;6.93;;;;;;;;;;4972905;28;20271;-73
2020/12/17 01:55:39;;;;;;;10.52;6.85;;;;;;;;;;4973443;28;20609;-73
2020/12/17 01:58:06;;;;;;;6.63;5.90;;;;;;;;;;4971484;28;20593;-73
2020/12/17 02:00:36;;;;;;;8.18;6.35;;;;;;;;;;4973003;28;20191;-74
2020/12/17 02:03:02;;;;;;;6.45;5.85;;;;;;;;;;4972993;28;20200;-73
2020/12/17 02:05:29;;;;;;;7.15;5.60;;;;;;;;;;4973451;28;20273;-73
2020/12/17 02:07:57;;;;;;;8.23;5.93;;;;;;;;;;4970054;28;20195;-72
2020/12/17 02:10:23;;;;;;;7.45;6.75;;;;;;;;;;4971986;28;20208;-72
2020/12/17 02:12:49;;;;;;;8.23;6.27;;;;;;;;;;4969068;28;20183;-72
2020/12/17 02:15:16;;;;;;;6.50;5.90;;;;;;;;;;4973356;28;20428;-72
2020/12/17 02:17:42;;;;;;;6.57;5.97;;;;;;;;;;4969259;28;20275;-76
2020/12/17 02:20:08;;;;;;;7.75;5.85;;;;;;;;;;4972977;28;20228;-74
2020/12/17 02:22:34;;;;;;;6.18;5.57;;;;;;;;;;4972871;28;20176;-76
2020/12/17 02:25:01;;;;;;;6.63;5.90;;;;;;;;;;4971610;28;20184;-73
2020/12/17 02:27:27;;;;;;;6.45;5.65;;;;;;;;;;4970882;28;20621;-72
2020/12/17 02:29:53;;;;;;;7.32;5.35;;;;;;;;;;4971227;28;20271;-73
2020/12/17 02:32:19;;;;;;;6.40;5.65;;;;;;;;;;4972487;28;20184;-72
2020/12/17 02:34:45;;;;;;;6.03;5.35;;;;;;;;;;4971988;28;20188;-73
2020/12/17 02:37:11;;;;;;;6.95;5.90;;;;;;;;;;4971349;28;20188;-74
2020/12/17 02:39:37;;;;;;;6.03;5.50;;;;;;;;;;4972438;28;20207;-73
2020/12/17 02:42:04;;;;;;;8.40;6.00;;;;;;;;;;4971230;28;20216;-73
2020/12/17 02:44:30;;;;;;;6.15;5.55;;;;;;;;;;4971654;28;20435;-72
2020/12/17 02:46:56;;;;;;;7.00;5.60;;;;;;;;;;4972290;28;20669;-73
2020/12/17 02:49:21;;;;;;;6.88;6.10;;;;;;;;;;4971589;28;20471;-73
2020/12/17 02:51:47;;;;;;;6.87;6.27;;;;;;;;;;4970609;28;20744;-73
2020/12/17 02:54:13;;;;;;;6.43;5.77;;;;;;;;;;4971811;28;20497;-72
2020/12/17 02:56:39;;;;;;;10.67;5.63;;;;;;;;;;4970585;28;20427;-72
2020/12/17 02:59:05;;;;;;;8.80;4.73;;;;;;;;;;4970939;28;20459;-73
2020/12/17 03:01:31;;;;;;;7.63;5.77;;;;;;;;;;4971146;28;20443;-73
2020/12/17 03:03:57;;;;;;;6.33;5.73;;;;;;;;;;4971181;28;20534;-72
2020/12/17 03:06:23;;;;;;;7.07;6.40;;;;;;;;;;4971543;28;20447;-72
2020/12/17 03:08:49;;;;;;;6.20;5.60;;;;;;;;;;4964088;28;20466;-72
2020/12/17 03:11:15;;;;;;;6.07;5.50;;;;;;;;;;4968881;28;20216;-72
2020/12/17 03:13:41;;;;;;;6.67;5.97;;;;;;;;;;4970581;28;20447;-72
2020/12/17 03:16:07;;;;;;;8.23;6.33;;;;;;;;;;4972515;28;20420;-75
2020/12/17 03:18:33;;;;;;;6.60;6.00;;;;;;;;;;4970826;28;20470;-73
2020/12/17 03:20:59;;;;;;;7.37;5.80;;;;;;;;;;4971522;28;20180;-73
2020/12/17 03:23:25;;;;;;;6.07;5.55;;;;;;;;;;4969574;28;20966;-73
2020/12/17 03:25:51;;;;;;;6.33;5.73;;;;;;;;;;4970642;28;20267;-72
2020/12/17 03:28:17;;;;;;;5.60;5.03;;;;;;;;;;4969420;28;20471;-74
2020/12/17 03:30:42;;;;;;;5.27;4.77;;;;;;;;;;4971098;28;20464;-73
2020/12/17 03:33:08;;;;;;;5.20;4.80;;;;;;;;;;4970955;28;20486;-72
2020/12/17 03:35:34;;;;;;;6.73;5.50;;;;;;;;;;4971769;28;20420;-72
2020/12/17 03:38:00;;;;;;;5.97;5.37;;;;;;;;;;4968721;28;20440;-73
2020/12/17 03:40:26;;;;;;;7.43;5.97;;;;;;;;;;5019476;23;20505;-79
2020/12/17 03:42:53;;;;;;;7.40;5.15;;;;;;;;;;5016422;28;20422;-80
2020/12/17 03:45:19;;;;;;;7.15;5.90;;;;;;;;;;5006592;28;20687;-81
2020/12/17 03:47:45;;;;;;;5.85;5.35;;;;;;;;;;5009145;28;20213;-80
2020/12/17 03:50:11;;;;;;;6.38;5.78;;;;;;;;;;5012910;28;20222;-81
2020/12/17 03:52:37;;;;;;;7.15;6.45;;;;;;;;;;5020134;28;20183;-77
2020/12/17 03:55:03;;;;;;;6.70;6.10;;;;;;;;;;5009758;28;20178;-80
2020/12/17 03:57:29;;;;;;;7.43;6.00;;;;;;;;;;5001591;28;20438;-78
2020/12/17 03:59:55;;;;;;;7.77;5.93;;;;;;;;;;5000447;28;20195;-80
2020/12/17 04:02:21;;;;;;;6.73;6.03;;;;;;;;;;5001239;28;20465;-79
2020/12/17 04:04:47;;;;;;;9.20;7.10;;;;;;;;;;5008297;28;20434;-80
2020/12/17 04:07:13;;;;;;;6.97;6.37;;;;;;;;;;5006208;28;20941;-79
2020/12/17 04:09:40;;;;;;;6.30;5.80;;;;;;;;;;5011618;28;20556;-79
2020/12/17 04:12:06;;;;;;;6.25;5.75;;;;;;;;;;5009137;28;20482;-79
2020/12/17 04:14:32;;;;;;;5.93;5.32;;;;;;;;;;5017542;28;20186;-78
2020/12/17 04:16:58;;;;;;;6.70;6.10;;;;;;;;;;5003782;28;20180;-79
2020/12/17 04:19:24;;;;;;;8.80;7.07;;;;;;;;;;5007098;28;20445;-80
2020/12/17 04:21:50;;;;;;;7.82;6.30;;;;;;;;;;5003079;28;20191;-79
2020/12/17 04:24:16;;;;;;;8.87;5.77;;;;;;;;;;5001453;28;20238;-79
2020/12/17 04:26:42;;;;;;;6.57;5.97;;;;;;;;;;5007004;28;20431;-77
2020/12/17 04:29:08;;;;;;;7.15;6.47;;;;;;;;;;5007702;28;20465;-80
2020/12/17 04:31:34;;;;;;;7.72;6.90;;;;;;;;;;5005146;28;20229;-79
2020/12/17 04:34:00;;;;;;;7.40;6.80;;;;;;;;;;5006533;28;20206;-80
2020/12/17 04:36:26;;;;;;;7.53;5.83;;;;;;;;;;5019487;28;20438;-80
2020/12/17 04:38:52;;;;;;;8.23;7.17;;;;;;;;;;5016270;28;20505;-79
2020/12/17 04:41:19;;;;;;;10.25;7.00;;;;;;;;;;5005717;28;20443;-80
2020/12/17 04:43:45;;;;;;;7.43;6.43;;;;;;;;;;5008302;28;20206;-79
2020/12/17 04:46:14;;;;;;;7.25;6.10;;;;;;;;;;5007923;28;20199;-78
2020/12/17 04:48:42;;;;;;;8.38;6.75;;;;;;;;;;5016456;28;20194;-79
2020/12/17 04:51:08;;;;;;;8.43;6.47;;;;;;;;;;5022771;28;20206;-80
2020/12/17 04:53:37;;;;;;;6.90;6.25;;;;;;;;;;5010484;28;20179;-79
2020/12/17 04:56:03;;;;;;;8.80;6.82;;;;;;;;;;5009796;28;20222;-79
2020/12/17 04:58:31;;;;;;;9.70;6.77;;;;;;;;;;5018433;28;20191;-79
2020/12/17 05:00:57;;;;;;;10.00;6.70;;;;;;;;;;5011279;28;20442;-80
2020/12/17 05:03:24;;;;;;;7.67;6.90;;;;;;;;;;5009678;28;20226;-79
2020/12/17 05:05:53;;;;;;;6.55;5.95;;;;;;;;;;5003902;28;20419;-78
2020/12/17 05:08:20;;;;;;;6.65;5.60;;;;;;;;;;5003533;28;20242;-79
2020/12/17 05:10:46;;;;;;;7.43;6.22;;;;;;;;;;5011632;28;20214;-80
2020/12/17 05:13:12;;;;;;;9.88;6.90;;;;;;;;;;5005745;28;20634;-79
2020/12/17 05:15:39;;;;;;;7.35;6.65;;;;;;;;;;5021291;28;20173;-79
2020/12/17 05:18:07;;;;;;;8.45;6.90;;;;;;;;;;5006922;28;20175;-80
2020/12/17 05:20:35;;;;;;;7.90;7.07;;;;;;;;;;5006025;28;20242;-80
2020/12/17 05:23:02;;;;;;;7.22;6.53;;;;;;;;;;5017060;28;20186;-79
2020/12/17 05:25:28;;;;;;;7.32;6.63;;;;;;;;;;5012847;28;20681;-78
2020/12/17 05:27:53;;;;;;;9.53;5.30;;;;;;;;;;5010869;28;20180;-79
2020/12/17 05:30:19;;;;;;;5.93;5.30;;;;;;;;;;5005632;28;20470;-79
2020/12/17 05:32:45;;;;;;;7.07;6.03;;;;;;;;;;5016338;28;20795;-79
2020/12/17 05:35:16;;;;;;;8.10;7.30;;;;;;;;;;5021608;28;20428;-78
2020/12/17 05:37:42;;;;;;;8.00;6.50;;;;;;;;;;5016102;28;20225;-78
2020/12/17 05:40:08;;;;;;;6.28;5.68;;;;;;;;;;5009964;28;20222;-80
2020/12/17 05:42:35;;;;;;;6.90;6.32;;;;;;;;;;5015589;28;20187;-80
2020/12/17 05:45:01;;;;;;;8.02;5.70;;;;;;;;;;5015871;28;20194;-79
2020/12/17 05:47:27;;;;;;;8.38;7.65;;;;;;;;;;5011038;28;20238;-79
2020/12/17 05:49:53;;;;;;;8.82;6.90;;;;;;;;;;5003131;28;20420;-79
2020/12/17 05:52:20;;;;;;;7.30;6.60;;;;;;;;;;5000086;28;20214;-79
2020/12/17 05:54:52;;;;;;;11.77;6.80;;;;;;;;;;5006342;28;20517;-78
2020/12/17 05:57:18;;;;;;;8.70;6.78;;;;;;;;;;5015830;28;20186;-78
2020/12/17 05:59:54;;;;;;;9.60;6.65;;;;;;;;;;5005323;28;20261;-78
2020/12/17 06:02:20;;;;;;;8.05;5.60;;;;;;;;;;5012140;28;20183;-79
2020/12/17 06:05:00;;;;;;;7.20;6.60;;;;;;;;;;5007911;28;20179;-76
2020/12/17 06:07:30;;;;;;;8.38;7.55;;;;;;;;;;5013084;28;20459;-80
2020/12/17 06:09:59;;;;;;;9.20;6.50;;;;;;;;;;5010804;28;20211;-78
2020/12/17 06:12:25;;;;;;;6.97;6.28;;;;;;;;;;5005118;28;20188;-79
2020/12/17 06:14:52;;;;;;;8.25;7.45;;;;;;;;;;4998241;28;20183;-77
2020/12/17 06:17:21;;;;;;;8.98;7.32;;;;;;;;;;5012009;28;20611;-77
2020/12/17 06:19:47;;;;;;;12.98;6.63;;;;;;;;;;5015812;28;20206;-78
2020/12/17 06:22:13;;;;;;;10.90;6.93;;;;;;;;;;5005602;28;20187;-78
2020/12/17 06:24:41;;;;;;;7.88;6.55;;;;;;;;;;5013622;28;20178;-78
2020/12/17 06:27:09;;;;;;;7.18;6.47;;;;;;;;;;5002865;28;20188;-76
2020/12/17 06:29:48;;;;;;;7.47;6.75;;;;;;;;;;5015740;28;20194;-80
2020/12/17 06:32:16;;;;;;;7.78;7.07;;;;;;;;;;5001061;28;20574;-81
2020/12/17 06:34:44;;;;;;;7.43;6.72;;;;;;;;;;5015967;28;20172;-78
2020/12/17 06:37:12;;;;;;;9.23;6.78;;;;;;;;;;4998619;28;20194;-79
2020/12/17 06:39:45;;;;;;;13.85;8.05;;;;;;;;;;5003158;28;20294;-78
2020/12/17 06:42:31;;;;;;;8.40;7.57;;;;;;;;;;5001168;28;20274;-79
2020/12/17 06:44:57;;;;;;;9.88;8.00;;;;;;;;;;5004086;28;20241;-78
2020/12/17 06:47:27;;;;;;;8.43;7.63;;;;;;;;;;4996948;28;20186;-78
2020/12/17 06:49:53;;;;;;;9.55;8.00;;;;;;;;;;4995979;28;20426;-78
2020/12/17 06:52:19;;;;;;;8.52;7.65;;;;;;;;;;4998550;28;20184;-81
2020/12/17 06:54:46;;;;;;;12.30;6.80;;;;;;;;;;4996346;28;20225;-79
2020/12/17 06:57:12;;;;;;;8.75;6.55;;;;;;;;;;4996468;28;20178;-80
2020/12/17 06:59:39;;;;;;;7.47;6.70;;;;;;;;;;4997846;28;20200;-80
2020/12/17 07:02:05;;;;;;;8.38;7.57;;;;;;;;;;4999235;28;20430;-79
2020/12/17 07:04:40;;;;;;;10.85;8.93;;;;;;;;;;5002288;28;20183;-77
2020/12/17 07:07:16;;;;;;;10.75;8.25;;;;;;;;;;4999136;28;20183;-80
2020/12/17 07:09:43;;;;;;;9.40;8.40;;;;;;;;;;5005604;28;20293;-80
2020/12/17 07:12:11;;;;;;;9.18;7.55;;;;;;;;;;5003822;28;20199;-78
2020/12/17 07:14:37;;;;;;;8.18;6.53;;;;;;;;;;5017574;28;20225;-80
2020/12/17 07:17:07;;;;;;;9.95;8.00;;;;;;;;;;5013242;28;20196;-75
2020/12/17 07:19:48;;;;;;;10.02;8.10;;;;;;;;;;5001005;28;20195;-77
2020/12/17 07:22:15;;;;;;;12.40;8.23;;;;;;;;;;4998842;28;20183;-77
2020/12/17 07:24:43;;;;;;;9.50;8.55;;;;;;;;;;5001396;28;20179;-78
2020/12/17 07:27:11;;;;;;;8.82;8.02;;;;;;;;;;5001953;28;20202;-78
2020/12/17 07:29:46;;;;;;;9.55;8.63;;;;;;;;;;5017535;28;20238;-80
2020/12/17 07:32:22;;;;;;;24.50;9.13;;;;;;;;;;5005432;28;20211;-77
2020/12/17 07:34:48;;;;;;;9.48;8.65;;;;;;;;;;5006826;28;20574;-77
2020/12/17 07:37:33;;;;;;;9.68;8.68;;;;;;;;;;4996734;28;20183;-79
2020/12/17 07:40:00;;;;;;;8.82;7.97;;;;;;;;;;5007824;28;20341;-79
2020/12/17 07:42:27;;;;;;;8.98;7.97;;;;;;;;;;5013678;28;20181;-77
2020/12/17 07:44:53;;;;;;;9.55;8.52;;;;;;;;;;5012444;28;20187;-79
2020/12/17 07:47:20;;;;;;;10.63;7.93;;;;;;;;;;4999660;28;20184;-79
2020/12/17 07:49:46;;;;;;;8.90;8.10;;;;;;;;;;5000446;28;20453;-79
2020/12/17 07:52:31;;;;;;;8.43;7.18;;;;;;;;;;5004715;28;20261;-79
2020/12/17 07:54:57;;;;;;;7.57;6.88;;;;;;;;;;4997768;28;20231;-79
2020/12/17 07:57:23;;;;;;;7.03;6.10;;;;;;;;;;5021983;28;20197;-75
2020/12/17 07:59:49;;;;;;;6.75;6.13;;;;;;;;;;5012538;28;20513;-75
2020/12/17 08:02:15;;;;;;;6.97;6.00;;;;;;;;;;5021050;28;20183;-76
2020/12/17 08:04:54;;;;;;;5.90;5.30;;;;;;;;;;5014139;28;20437;-77
2020/12/17 08:07:20;;;;;;;5.70;4.93;;;;;;;;;;5011174;28;20654;-77
2020/12/17 08:10:02;;;;;;;6.20;4.78;;;;;;;;;;4996892;28;20265;-80
2020/12/17 08:12:28;;;;;;;4.28;3.88;;;;;;;;;;5012863;28;20285;-79
2020/12/17 08:15:06;;;;;;;5.10;4.07;;;;;;;;;;4999150;28;20207;-78
2020/12/17 08:17:32;;;;;;;5.65;4.00;;;;;;;;;;5001832;28;20437;-78
2020/12/17 08:19:58;;;;;;;4.70;4.40;;;;;;;;;;5008408;28;20206;-75
2020/12/17 08:22:28;;;;;;;3.60;3.00;;;;;;;;;;5010387;28;20179;-77
2020/12/17 08:24:55;;;;;;;3.50;2.95;;;;;;;;;;4997463;28;20266;-77
2020/12/17 08:27:21;;;;;;;2.28;2.08;;;;;;;;;;4999289;28;20202;-77
2020/12/17 08:29:47;;;;;;;2.60;2.40;;;;;;;;;;4997747;28;20203;-77
2020/12/17 08:32:13;;;;;;;7.43;2.90;;;;;;;;;;5008004;28;20237;-79
2020/12/17 08:34:51;;;;;;;2.40;2.20;;;;;;;;;;5002104;28;20427;-80
2020/12/17 08:37:18;;;;;;;3.00;1.75;;;;;;;;;;5006597;28;20179;-77
2020/12/17 08:39:44;;;;;;;3.45;2.10;;;;;;;;;;5001522;28;20253;-77
2020/12/17 08:42:11;;;;;;;2.75;2.53;;;;;;;;;;5003039;28;20194;-77
2020/12/17 08:44:38;;;;;;;2.03;1.92;;;;;;;;;;5005594;28;20323;-76
2020/12/17 08:47:08;;;;;;;2.90;1.60;;;;;;;;;;5012201;28;20451;-78
2020/12/17 08:49:35;;;;;;;2.60;2.40;;;;;;;;;;5002026;28;20537;-78
2020/12/17 08:52:01;;;;;;;3.30;1.92;;;;;;;;;;5011536;28;20481;-77
2020/12/17 08:54:30;;;;;;;2.45;1.98;;;;;;;;;;5003026;28;20187;-79
2020/12/17 08:57:05;;;;;;;2.00;1.85;;;;;;;;;;5005056;28;20183;-79
2020/12/17 08:59:31;;;;;;;2.47;2.28;;;;;;;;;;5015402;28;20330;-79
2020/12/17 09:02:00;;;;;;;6.07;2.05;;;;;;;;;;5003403;28;20236;-77
2020/12/17 09:04:26;;;;;;;2.75;2.05;;;;;;;;;;5009525;28;20190;-78
2020/12/17 09:06:57;;;;;;;3.30;3.00;;;;;;;;;;5004592;28;20214;-79
2020/12/17 09:09:31;;;;;;;2.80;1.98;;;;;;;;;;5009803;28;20207;-80
2020/12/17 09:12:01;;;;;;;5.80;3.05;;;;;;;;;;4999207;28;20203;-77
2020/12/17 09:14:28;;;;;;;3.00;2.35;;;;;;;;;;5006020;28;20176;-79
2020/12/17 09:16:54;;;;;;;3.13;1.90;;;;;;;;;;4999522;28;20203;-78
2020/12/17 09:19:20;;;;;;;1.70;1.60;;;;;;;;;;5006397;28;20675;-76
2020/12/17 09:21:58;;;;;;;2.43;1.73;;;;;;;;;;5010691;28;20225;-77
2020/12/17 09:24:31;;;;;;;2.45;1.73;;;;;;;;;;5000008;28;20529;-76
2020/12/17 09:26:57;;;;;;;4.40;2.00;;;;;;;;;;4999851;28;20217;-78
2020/12/17 09:29:23;;;;;;;2.40;1.75;;;;;;;;;;5016068;28;20191;-79
2020/12/17 09:31:49;;;;;;;2.70;1.35;;;;;;;;;;4998920;28;20266;-79
2020/12/17 09:34:16;;;;;;;1.40;1.10;;;;;;;;;;5011650;28;20184;-78
2020/12/17 09:36:54;;;;;;;1.88;1.48;;;;;;;;;;5001804;28;20175;-79
2020/12/17 09:39:20;;;;;;;2.80;1.73;;;;;;;;;;5004676;28;20302;-79
2020/12/17 09:41:53;;;;;;;1.30;1.20;;;;;;;;;;5015566;23;20237;-71
2020/12/17 09:44:26;;;;;;;1.50;1.40;;;;;;;;;;5012405;28;20213;-74
2020/12/17 09:46:52;;;;;;;1.50;1.40;;;;;;;;;;5012868;28;20174;-74
2020/12/17 09:49:24;;;;;;;2.97;1.67;;;;;;;;;;5012766;28;20183;-74
2020/12/17 09:52:22;;;;;;;2.25;1.45;;;;;;;;;;4994371;28;20529;-75
2020/12/17 09:54:48;;;;;;;4.05;2.20;;;;;;;;;;4999318;28;20218;-75
2020/12/17 09:57:15;;;;;;;2.90;1.70;;;;;;;;;;5007182;28;20218;-74
2020/12/17 09:59:43;;;;;;;2.80;1.70;;;;;;;;;;5009691;28;20426;-74
2020/12/17 10:02:10;;;;;;;1.50;1.33;;;;;;;;;;5010771;28;20211;-74
2020/12/17 10:04:36;;;;;;;1.38;1.27;;;;;;;;;;5009210;28;20187;-72
2020/12/17 10:07:02;;;;;;;1.50;1.33;;;;;;;;;;4994681;28;20187;-72
2020/12/17 10:09:29;;;;;;;2.40;2.20;;;;;;;;;;4996395;28;20179;-72
2020/12/17 10:11:55;;;;;;;1.73;1.63;;;;;;;;;;4998081;28;20692;-72
2020/12/17 10:14:21;;;;;;;3.70;1.80;;;;;;;;;;5000877;28;20548;-71
2020/12/17 10:16:48;;;;;;;4.32;2.03;;;;;;;;;;5002737;28;20578;-75
2020/12/17 10:19:15;;;;;;;2.00;1.80;;;;;;;;;;5002890;28;20187;-75
2020/12/17 10:21:41;;;;;;;3.60;1.55;;;;;;;;;;5012260;28;20202;-75
2020/12/17 10:24:07;;;;;;;1.52;1.42;;;;;;;;;;5001182;28;20231;-74
2020/12/17 10:26:34;;;;;;;1.85;1.10;;;;;;;;;;5004439;28;20209;-74
2020/12/17 10:29:00;;;;;;;3.22;1.20;;;;;;;;;;5010865;28;20820;-74
2020/12/17 10:31:27;;;;;;;1.20;1.10;;;;;;;;;;4998796;28;20675;-74
2020/12/17 10:33:53;;;;;;;1.40;1.20;;;;;;;;;;5005125;28;20594;-74
2020/12/17 10:36:19;;;;;;;2.33;1.30;;;;;;;;;;4998431;28;20210;-72
2020/12/17 10:38:45;;;;;;;1.45;1.33;;;;;;;;;;4997238;28;20190;-72
2020/12/17 10:41:11;;;;;;;2.60;1.40;;;;;;;;;;5011872;28;20183;-72
2020/12/17 10:43:37;;;;;;;1.23;1.13;;;;;;;;;;4995321;28;20443;-72
2020/12/17 10:46:04;;;;;;;1.48;1.33;;;;;;;;;;4992946;28;20859;-72
2020/12/17 10:48:29;;;;;;;1.38;1.27;;;;;;;;;;5000010;28;20188;-72
2020/12/17 10:50:55;;;;;;;3.47;1.23;;;;;;;;;;5008595;28;20210;-72
2020/12/17 10:53:21;;;;;;;1.97;1.80;;;;;;;;;;4992604;28;20446;-74
2020/12/17 10:55:47;;;;;;;1.40;1.30;;;;;;;;;;4999756;28;20422;-74
2020/12/17 10:58:15;;;;;;;1.20;1.10;;;;;;;;;;4992499;28;20510;-74
2020/12/17 11:00:41;;;;;;;1.30;1.17;;;;;;;;;;4998063;28;20780;-74
2020/12/17 11:03:07;;;;;;;1.50;1.27;;;;;;;;;;5002940;28;20601;-74
2020/12/17 11:05:35;;;;;;;1.60;1.13;;;;;;;;;;4991834;28;20188;-71
2020/12/17 11:08:01;;;;;;;2.15;1.30;;;;;;;;;;4999544;28;20187;-72
2020/12/17 11:10:27;;;;;;;1.37;0.97;;;;;;;;;;4999099;28;20204;-74
2020/12/17 11:12:53;;;;;;;2.00;1.30;;;;;;;;;;4995178;28;20450;-74
2020/12/17 11:15:19;;;;;;;4.50;1.63;;;;;;;;;;4998018;28;20700;-74
2020/12/17 11:17:45;;;;;;;1.67;1.37;;;;;;;;;;5001557;28;20186;-74
2020/12/17 11:20:12;;;;;;;1.57;1.27;;;;;;;;;;5009678;28;20476;-72
2020/12/17 11:22:39;;;;;;;1.20;1.10;;;;;;;;;;4994416;28;20449;-72
2020/12/17 11:25:05;;;;;;;2.53;1.35;;;;;;;;;;5003455;28;20178;-72
2020/12/17 11:27:31;;;;;;;2.70;1.50;;;;;;;;;;5002729;28;20195;-72
2020/12/17 11:29:57;;;;;;;2.80;1.20;;;;;;;;;;4998709;28;20428;-72
2020/12/17 11:32:23;;;;;;;1.87;1.40;;;;;;;;;;5001921;28;20480;-72
2020/12/17 11:34:50;;;;;;;3.38;1.55;;;;;;;;;;5003623;28;20430;-72
2020/12/17 11:37:16;;;;;;;2.25;1.50;;;;;;;;;;4999872;28;20189;-72
2020/12/17 11:39:42;;;;;;;2.45;1.27;;;;;;;;;;4991650;28;20254;-72
2020/12/17 11:42:08;;;;;;;3.30;1.30;;;;;;;;;;4991182;28;20289;-72
2020/12/17 11:44:34;;;;;;;2.88;1.70;;;;;;;;;;5000439;28;20446;-72
2020/12/17 11:47:00;;;;;;;3.40;1.48;;;;;;;;;;4992205;28;20184;-72
2020/12/17 11:49:26;;;;;;;1.42;1.33;;;;;;;;;;4993296;28;20209;-72
2020/12/17 11:51:53;;;;;;;4.60;1.60;;;;;;;;;;4990668;28;20211;-72
2020/12/17 11:54:19;;;;;;;3.00;2.05;;;;;;;;;;4996226;28;20186;-72
2020/12/17 11:56:51;;;;;;;1.52;1.40;;;;;;;;;;5000180;28;20195;-71
2020/12/17 11:59:18;;;;;;;1.50;1.40;;;;;;;;;;4994315;28;20267;-72
2020/12/17 12:01:45;;;;;;;1.90;1.70;;;;;;;;;;5008896;28;20613;-72
2020/12/17 12:04:11;;;;;;;2.22;1.83;;;;;;;;;;4993884;28;20214;-72
2020/12/17 12:06:37;;;;;;;7.57;1.83;;;;;;;;;;4990615;28;20187;-72
2020/12/17 12:09:04;;;;;;;2.78;1.98;;;;;;;;;;4992709;28;20542;-72
2020/12/17 12:11:30;;;;;;;2.65;1.60;;;;;;;;;;4994410;28;20223;-73
2020/12/17 12:13:56;;;;;;;1.77;1.50;;;;;;;;;;4996093;28;20186;-72
2020/12/17 12:16:23;;;;;;;2.43;1.70;;;;;;;;;;4993710;28;20505;-72
2020/12/17 12:18:49;;;;;;;1.80;1.40;;;;;;;;;;4994094;28;20823;-72
2020/12/17 12:21:16;;;;;;;1.92;1.20;;;;;;;;;;4998391;28;20227;-72
2020/12/17 12:23:42;;;;;;;1.42;1.33;;;;;;;;;;4999187;28;20182;-72
2020/12/17 12:26:08;;;;;;;5.57;1.30;;;;;;;;;;5006369;28;20214;-72
2020/12/17 12:28:34;;;;;;;4.35;1.42;;;;;;;;;;4998036;28;20190;-72
2020/12/17 12:31:02;;;;;;;4.27;2.10;;;;;;;;;;4994211;28;20221;-72
2020/12/17 12:33:29;;;;;;;2.15;1.40;;;;;;;;;;5003612;28;20949;-72
2020/12/17 12:35:55;;;;;;;3.90;1.55;;;;;;;;;;4997826;28;20206;-72
2020/12/17 12:38:22;;;;;;;2.13;1.50;;;;;;;;;;4997314;28;20186;-72
2020/12/17 12:40:48;;;;;;;1.67;1.58;;;;;;;;;;4998147;28;20785;-71
2020/12/17 12:43:14;;;;;;;6.07;2.15;;;;;;;;;;4995564;28;20226;-71
2020/12/17 12:45:40;;;;;;;3.23;2.47;;;;;;;;;;5003443;28;20194;-71
2020/12/17 12:48:06;;;;;;;3.33;1.67;;;;;;;;;;5002795;28;20913;-72
2020/12/17 12:50:32;;;;;;;2.58;1.55;;;;;;;;;;5006857;28;20466;-72
2020/12/17 12:52:58;;;;;;;3.20;1.35;;;;;;;;;;5003365;28;20712;-72
2020/12/17 12:55:24;;;;;;;1.60;1.50;;;;;;;;;;5007301;28;20183;-71
2020/12/17 12:57:52;;;;;;;2.63;2.00;;;;;;;;;;5006106;28;20420;-72
2020/12/17 13:00:18;;;;;;;3.45;3.25;;;;;;;;;;5002216;28;20476;-72
2020/12/17 13:02:44;;;;;;;4.93;1.67;;;;;;;;;;5003162;28;20207;-72
2020/12/17 13:05:10;;;;;;;4.20;2.10;;;;;;;;;;5001789;28;20441;-72
2020/12/17 13:07:36;;;;;;;3.03;1.50;;;;;;;;;;5003435;28;20466;-72
2020/12/17 13:10:02;;;;;;;2.47;2.20;;;;;;;;;;5003866;28;20932;-71
2020/12/17 13:12:29;;;;;;;3.22;1.77;;;;;;;;;;5003403;28;20462;-72
2020/12/17 13:14:55;;;;;;;2.20;1.58;;;;;;;;;;5011058;28;20189;-72
2020/12/17 13:17:21;;;;;;;5.32;2.22;;;;;;;;;;5004159;28;20191;-72
2020/12/17 13:19:47;;;;;;;2.60;2.00;;;;;;;;;;4995587;28;20222;-72
2020/12/17 13:22:13;;;;;;;3.30;1.67;;;;;;;;;;5001150;28;20234;-72
2020/12/17 13:24:39;;;;;;;2.85;2.00;;;;;;;;;;5000939;28;20431;-73
2020/12/17 13:27:05;;;;;;;3.05;2.85;;;;;;;;;;5000492;28;20186;-72
2020/12/17 13:29:31;;;;;;;2.53;1.47;;;;;;;;;;5004633;28;20260;-72
2020/12/17 13:31:57;;;;;;;2.90;1.40;;;;;;;;;;5000823;28;20993;-72
2020/12/17 13:34:23;;;;;;;3.17;1.50;;;;;;;;;;5006714;28;21100;-73
2020/12/17 13:36:49;;;;;;;1.85;1.00;;;;;;;;;;5002991;28;20427;-72
2020/12/17 13:39:15;;;;;;;1.73;1.30;;;;;;;;;;5000015;28;20681;-72
2020/12/17 13:41:41;;;;;;;2.58;1.70;;;;;;;;;;5002938;28;20223;-72
2020/12/17 13:44:07;;;;;;;2.83;1.33;;;;;;;;;;5007524;28;20600;-73
2020/12/17 13:46:33;;;;;;;3.00;1.67;;;;;;;;;;4996607;28;20422;-72
2020/12/17 13:48:59;;;;;;;2.23;1.17;;;;;;;;;;5008065;28;20439;-72
2020/12/17 13:51:25;;;;;;;8.48;1.35;;;;;;;;;;4996369;28;20480;-72
2020/12/17 13:53:51;;;;;;;2.20;1.42;;;;;;;;;;4996529;28;20696;-72
2020/12/17 13:56:26;;;;;;;1.20;1.00;;;;;;;;;;4999507;28;20228;-72
2020/12/17 13:58:52;;;;;;;4.05;2.28;;;;;;;;;;4996746;28;20414;-72
2020/12/17 14:01:18;;;;;;;4.22;1.90;;;;;;;;;;4992748;28;20210;-72
2020/12/17 14:03:44;;;;;;;1.77;1.27;;;;;;;;;;4995644;28;20191;-72
2020/12/17 14:06:10;;;;;;;3.03;1.60;;;;;;;;;;5007203;28;20863;-72
2020/12/17 14:08:36;;;;;;;2.40;1.23;;;;;;;;;;5001759;28;20264;-72
2020/12/17 14:11:03;;;;;;;2.60;1.50;;;;;;;;;;4995299;28;20483;-72
2020/12/17 14:13:29;;;;;;;2.00;1.55;;;;;;;;;;4998782;28;20865;-72
2020/12/17 14:15:56;;;;;;;2.35;1.50;;;;;;;;;;5003938;28;20179;-72
2020/12/17 14:18:21;;;;;;;1.90;1.30;;;;;;;;;;4992559;28;20234;-72
2020/12/17 14:20:47;;;;;;;4.83;1.37;;;;;;;;;;5005442;28;20190;-72
2020/12/17 14:23:13;;;;;;;1.90;1.50;;;;;;;;;;4996645;28;20476;-72
2020/12/17 14:25:39;;;;;;;2.37;1.60;;;;;;;;;;5008140;28;21186;-72
2020/12/17 14:28:05;;;;;;;2.63;1.60;;;;;;;;;;5003456;28;20433;-73
2020/12/17 14:30:31;;;;;;;2.50;1.90;;;;;;;;;;5003347;28;20483;-71
2020/12/17 14:32:57;;;;;;;2.30;2.10;;;;;;;;;;5002408;28;20499;-72
2020/12/17 14:35:23;;;;;;;2.03;1.67;;;;;;;;;;4995051;28;20805;-72
2020/12/17 14:37:49;;;;;;;1.77;1.53;;;;;;;;;;4998145;28;20845;-72
2020/12/17 14:40:15;;;;;;;1.90;1.50;;;;;;;;;;5006782;28;20434;-71
2020/12/17 14:42:41;;;;;;;3.23;1.87;;;;;;;;;;5002710;28;20505;-72